Time;durP1;ratioP1;P1;durP2;ratioP2;P2;SDS_P1;SDS_P2;PMS_P1;PMS_P2;Temp;Humidity;BMP_temperature;BMP_pressure;BME280_temperature;BME280_humidity;BME280_pressure;Samples;Min_cycle;Max_cycle;Signal;HPM_P1;HPM_P2
2022/12/27 00:02:07;;;;;;;10.70;3.65;;;5.90;99.90;;;4.85;100.00;98179.44;5052857;28;20403;-73
2022/12/27 00:04:32;;;;;;;13.07;3.93;;;5.90;99.90;;;4.67;100.00;98183.38;5071291;28;20407;-73
2022/12/27 00:06:58;;;;;;;10.57;3.92;;;5.80;99.90;;;4.59;100.00;98190.59;5070105;28;20819;-73
2022/12/27 00:09:24;;;;;;;15.60;4.18;;;5.80;99.90;;;4.54;100.00;98187.75;5071331;28;20934;-73
2022/12/27 00:11:50;;;;;;;11.73;4.23;;;5.70;99.90;;;4.44;100.00;98188.09;5070627;28;20400;-73
2022/12/27 00:14:16;;;;;;;15.23;4.57;;;5.60;99.90;;;4.43;100.00;98201.41;5052945;28;20407;-73
2022/12/27 00:16:44;;;;;;;8.40;4.50;;;5.60;99.90;;;4.32;100.00;98199.31;5070960;28;20396;-72
2022/12/27 00:19:10;;;;;;;16.27;5.20;;;5.50;99.90;;;4.21;100.00;98187.56;5071233;28;20506;-73
2022/12/27 00:21:36;;;;;;;14.48;5.30;;;5.40;99.90;;;4.18;100.00;98201.84;5070551;28;20420;-73
2022/12/27 00:24:02;;;;;;;11.13;5.10;;;5.40;99.90;;;4.24;100.00;98201.06;5070649;28;20409;-73
2022/12/27 00:26:31;;;;;;;14.60;5.03;;;5.40;99.90;;;4.17;100.00;98209.88;5070921;28;20392;-73
2022/12/27 00:28:58;;;;;;;15.27;5.30;;;5.40;99.90;;;4.11;100.00;98215.88;5070848;28;20411;-73
2022/12/27 00:31:25;;;;;;;15.57;5.30;;;5.30;99.90;;;4.13;100.00;98219.13;5070242;28;20426;-73
2022/12/27 00:33:55;;;;;;;11.40;4.80;;;5.30;99.90;;;4.04;100.00;98222.88;5070616;28;20411;-73
2022/12/27 00:36:25;;;;;;;14.30;5.43;;;5.20;99.90;;;4.05;100.00;98227.13;5070817;28;20450;-73
2022/12/27 00:38:52;;;;;;;11.32;5.25;;;5.20;99.90;;;4.11;100.00;98227.16;5070691;28;20921;-73
2022/12/27 00:41:19;;;;;;;10.75;4.93;;;5.30;99.90;;;4.13;100.00;98227.81;5070074;28;20403;-73
2022/12/27 00:43:46;;;;;;;15.40;5.00;;;5.30;99.90;;;4.10;100.00;98233.41;5070360;28;20754;-73
2022/12/27 00:46:13;;;;;;;15.27;5.20;;;5.30;99.90;;;4.00;100.00;98234.72;5070725;28;20553;-72
2022/12/27 00:48:39;;;;;;;11.18;5.20;;;5.20;99.90;;;3.95;100.00;98242.34;5070326;28;20853;-72
2022/12/27 00:51:10;;;;;;;14.35;5.63;;;5.10;99.90;;;3.91;100.00;98243.72;5070400;28;20395;-72
2022/12/27 00:53:37;;;;;;;13.23;5.03;;;5.10;99.90;;;3.88;100.00;98247.50;5051730;28;21225;-72
2022/12/27 00:56:06;;;;;;;15.20;5.70;;;5.00;99.90;;;3.83;100.00;98249.91;5070381;28;20414;-72
2022/12/27 00:58:32;;;;;;;15.83;5.67;;;5.00;99.90;;;3.74;100.00;98249.19;5070262;28;20449;-71
2022/12/27 01:01:06;;;;;;;13.40;5.32;;;4.90;99.90;;;3.73;100.00;98257.22;5070309;28;20396;-71
2022/12/27 01:03:32;;;;;;;18.40;5.10;;;4.90;99.90;;;3.70;100.00;98266.25;5069449;28;20464;-71
2022/12/27 01:06:04;;;;;;;17.17;4.88;;;4.80;99.90;;;3.73;100.00;98265.91;5070376;28;20403;-71
2022/12/27 01:08:31;;;;;;;10.20;4.45;;;4.90;99.90;;;3.65;100.00;98267.81;5070181;28;20459;-72
2022/12/27 01:10:58;;;;;;;14.68;4.97;;;4.80;99.90;;;3.61;100.00;98254.28;5070071;28;20406;-72
2022/12/27 01:13:24;;;;;;;13.40;4.70;;;4.80;99.90;;;3.57;100.00;98268.75;5069321;28;20402;-73
2022/12/27 01:15:50;;;;;;;11.50;4.80;;;4.70;99.90;;;3.66;100.00;98267.66;5070175;28;20411;-72
2022/12/27 01:18:16;;;;;;;14.83;4.37;;;4.80;99.90;;;3.54;100.00;98268.28;5069719;28;20399;-73
2022/12/27 01:20:41;;;;;;;13.82;4.80;;;4.70;99.90;;;3.51;100.00;98266.88;5069928;28;20427;-72
2022/12/27 01:23:07;;;;;;;19.98;5.13;;;4.70;99.90;;;3.45;100.00;98271.03;5069413;28;20452;-72
2022/12/27 01:25:35;;;;;;;15.40;5.10;;;4.70;99.90;;;3.39;100.00;98276.19;5070032;28;20399;-72
2022/12/27 01:28:01;;;;;;;14.43;5.03;;;4.60;99.90;;;3.31;100.00;98286.75;5069792;28;20451;-73
2022/12/27 01:30:27;;;;;;;15.60;4.80;;;4.60;99.90;;;3.31;100.00;98290.19;5069812;28;20411;-72
2022/12/27 01:32:52;;;;;;;17.63;5.03;;;4.50;99.90;;;3.31;100.00;98308.50;5069140;28;20399;-72
2022/12/27 01:35:19;;;;;;;13.32;5.15;;;4.50;99.90;;;3.21;100.00;98312.41;5069874;28;20554;-72
2022/12/27 01:37:44;;;;;;;13.50;4.60;;;4.50;99.90;;;3.16;100.00;98314.75;5069698;28;20435;-73
2022/12/27 01:40:11;;;;;;;15.15;4.78;;;4.40;99.90;;;3.11;100.00;98323.94;5069789;28;20435;-72
2022/12/27 01:42:54;;;;;;;11.73;4.63;;;4.40;99.90;;;3.15;100.00;98334.06;5069064;28;20445;-72
2022/12/27 01:45:22;;;;;;;14.75;5.13;;;4.40;99.90;;;3.09;100.00;98330.34;5069749;28;20400;-72
2022/12/27 01:47:55;;;;;;;15.23;4.75;;;4.40;99.90;;;2.98;100.00;98338.63;5069753;28;20412;-72
2022/12/27 01:50:27;;;;;;;16.73;5.25;;;4.30;99.90;;;3.00;100.00;98339.28;5069863;28;20435;-72
2022/12/27 01:53:06;;;;;;;11.77;5.28;;;4.20;99.90;;;2.90;100.00;98338.72;5068961;28;20460;-73
2022/12/27 01:55:38;;;;;;;16.60;5.18;;;4.20;99.90;;;2.84;100.00;98337.63;5069742;28;20399;-73
2022/12/27 01:58:12;;;;;;;12.85;4.85;;;4.10;99.90;;;2.68;100.00;98338.59;5069656;28;20400;-72
2022/12/27 02:00:42;;;;;;;20.17;5.23;;;4.00;99.90;;;2.64;100.00;98342.53;5069574;28;20403;-72
2022/12/27 02:03:10;;;;;;;14.60;4.65;;;3.90;99.90;;;2.54;100.00;98349.84;5068911;28;20400;-72
2022/12/27 02:05:40;;;;;;;16.85;5.13;;;3.80;99.90;;;2.53;100.00;98340.38;5051802;28;20411;-72
2022/12/27 02:08:20;;;;;;;14.32;4.82;;;3.90;99.90;;;2.51;100.00;98347.56;5069371;28;20547;-72
2022/12/27 02:10:49;;;;;;;17.48;5.22;;;3.80;99.90;;;2.49;100.00;98348.72;5069471;28;20400;-72
2022/12/27 02:13:17;;;;;;;12.73;5.00;;;3.80;99.90;;;2.36;100.00;98349.31;5068689;28;21074;-73
2022/12/27 02:15:43;;;;;;;16.85;5.45;;;3.70;99.90;;;2.22;100.00;98356.13;5051373;28;20796;-72
2022/12/27 02:18:09;;;;;;;18.23;5.70;;;3.60;99.90;;;2.18;100.00;98354.81;5069422;28;20392;-73
2022/12/27 02:21:12;;;;;;;18.92;5.70;;;3.60;99.90;;;2.19;100.00;98364.28;5051400;28;20770;-73
2022/12/27 02:24:02;;;;;;;25.03;6.53;;;3.50;99.90;;;2.19;100.00;98369.50;5069113;28;20490;-72
2022/12/27 02:26:48;;;;;;;12.40;5.20;;;3.50;99.90;;;2.01;100.00;98382.06;5069409;28;20865;-72
2022/12/27 02:29:41;;;;;;;14.35;5.75;;;3.40;99.90;;;1.95;100.00;98385.34;5069671;28;20494;-73
2022/12/27 02:32:14;;;;;;;19.25;6.55;;;3.30;99.90;;;2.05;100.00;98391.16;5072469;28;20863;-72
2022/12/27 02:34:50;;;;;;;12.88;5.55;;;3.40;99.90;;;1.93;100.00;98392.53;5072864;28;20404;-72
2022/12/27 02:37:20;;;;;;;13.85;5.57;;;3.30;99.90;;;1.82;100.00;98392.91;5072801;28;20784;-72
2022/12/27 02:39:48;;;;;;;21.88;7.10;;;3.20;99.90;;;1.85;100.00;98387.34;5073151;28;20429;-73
2022/12/27 02:54:01;;;;;;;21.40;6.50;;;3.00;99.90;;;1.67;100.00;98382.38;5072512;28;20415;-72
2022/12/27 03:06:39;;;;;;;19.73;6.82;;;2.90;99.90;;;1.57;100.00;98399.25;5072746;28;20901;-74
2022/12/27 03:08:52;;;;;;;15.20;6.57;;;2.90;99.90;;;1.57;100.00;98392.22;5054680;28;20419;-72
2022/12/27 03:15:53;;;;;;;16.08;6.53;;;2.80;99.90;;;1.40;100.00;98393.25;5072072;28;20411;-73
2022/12/27 03:17:10;;;;;;;20.38;7.18;;;2.80;99.90;;;1.43;100.00;98388.50;5072066;28;20484;-73
2022/12/27 03:25:27;;;;;;;14.27;6.47;;;2.70;99.90;;;1.36;100.00;98397.16;5072357;28;20398;-73
2022/12/27 03:33:31;;;;;;;18.05;7.40;;;2.70;99.90;;;1.33;100.00;98398.34;5071218;28;20395;-73
2022/12/27 03:38:57;;;;;;;19.17;7.00;;;2.70;99.90;;;1.32;100.00;98396.69;5068829;22;20552;-73
2022/12/27 03:44:23;;;;;;;20.38;8.27;;;2.70;99.90;;;1.28;100.00;98399.81;5051932;28;20444;-73
2022/12/27 03:46:55;;;;;;;17.50;7.97;;;2.60;99.90;;;1.24;100.00;98411.56;5051784;28;20408;-73
2022/12/27 03:49:29;;;;;;;16.00;7.47;;;2.60;99.90;;;1.19;100.00;98417.28;5051525;28;20444;-73
2022/12/27 03:52:05;;;;;;;17.77;8.07;;;2.60;99.90;;;1.22;100.00;98421.31;5050883;28;20405;-73
2022/12/27 03:54:35;;;;;;;19.85;7.72;;;2.60;99.90;;;1.25;100.00;98421.00;5051531;28;20397;-73
2022/12/27 03:57:08;;;;;;;19.73;7.70;;;2.60;99.90;;;1.23;100.00;98415.94;5051822;28;20393;-73
2022/12/27 03:59:34;;;;;;;15.73;7.35;;;2.60;99.90;;;1.19;100.00;98419.06;5051683;28;20439;-73
2022/12/27 04:02:01;;;;;;;22.50;7.55;;;2.50;99.90;;;1.13;100.00;98429.16;5050746;28;20405;-73
2022/12/27 04:04:27;;;;;;;14.67;6.77;;;2.50;99.90;;;1.06;100.00;98417.78;5052188;28;20428;-73
2022/12/27 04:06:53;;;;;;;18.88;7.30;;;2.40;99.90;;;1.07;100.00;98423.81;5052770;28;20421;-73
2022/12/27 04:36:49;;;;;;;18.00;8.02;;;2.20;99.90;;;0.80;100.00;98422.38;5030961;28;20426;-73
2022/12/27 04:39:15;;;;;;;17.65;7.10;;;2.20;99.90;;;0.73;100.00;98417.00;5030829;28;20801;-73
2022/12/27 04:56:00;;;;;;;28.52;9.88;;;2.00;99.90;;;0.63;100.00;98418.13;5030695;28;20398;-73
2022/12/27 04:58:28;;;;;;;22.70;9.30;;;2.00;99.90;;;0.63;100.00;98425.94;5057116;28;20413;-74
2022/12/27 05:03:41;;;;;;;20.00;9.65;;;1.90;99.90;;;0.51;100.00;98432.47;5061610;28;20541;-73
2022/12/27 05:06:07;;;;;;;19.92;8.50;;;1.90;99.90;;;0.42;100.00;98433.44;5059254;28;21600;-73
2022/12/27 05:14:09;;;;;;;21.20;9.20;;;1.80;99.90;;;0.40;100.00;98433.56;5069999;28;20391;-73
2022/12/27 05:16:39;;;;;;;20.77;8.80;;;1.90;99.90;;;0.36;100.00;98448.72;5070185;28;20411;-73
2022/12/27 05:19:06;;;;;;;19.55;9.13;;;1.80;99.90;;;0.41;100.00;98437.00;5069976;28;20430;-73
2022/12/27 05:21:35;;;;;;;16.60;8.43;;;1.80;99.90;;;0.36;100.00;98453.13;5069464;28;20452;-73
2022/12/27 05:26:46;;;;;;;24.63;11.27;;;1.80;99.90;;;0.39;100.00;98450.19;5070033;28;20406;-73
2022/12/27 05:29:13;;;;;;;24.57;10.23;;;1.80;99.90;;;0.31;100.00;98455.38;5070066;28;20412;-73
2022/12/27 05:31:39;;;;;;;29.37;11.10;;;1.70;99.90;;;0.30;100.00;98453.75;5069355;28;20495;-73
2022/12/27 05:34:05;;;;;;;19.98;9.15;;;1.70;99.90;;;0.26;100.00;98457.66;5069511;28;20604;-73
2022/12/27 05:36:31;;;;;;;23.92;9.98;;;1.70;99.90;;;0.29;100.00;98462.53;5070035;28;20430;-73
2022/12/27 05:38:58;;;;;;;27.48;10.68;;;1.70;99.90;;;0.23;100.00;98458.78;5069730;28;20478;-73
2022/12/27 05:41:24;;;;;;;32.47;12.23;;;1.70;99.90;;;0.32;100.00;98462.22;5069290;28;20407;-73
2022/12/27 05:43:50;;;;;;;22.77;10.48;;;1.70;99.90;;;0.23;100.00;98463.97;5069599;28;20447;-73
2022/12/27 05:46:20;;;;;;;31.92;12.07;;;1.70;99.90;;;0.26;100.00;98468.88;5069909;28;20448;-73
2022/12/27 05:48:47;;;;;;;33.83;12.50;;;1.70;99.90;;;0.29;100.00;98468.56;5069571;28;20502;-73
2022/12/27 05:51:16;;;;;;;30.45;11.88;;;1.70;99.90;;;0.24;100.00;98473.41;5069192;28;20402;-73
2022/12/27 05:53:42;;;;;;;25.20;11.02;;;1.60;99.90;;;0.19;100.00;98465.28;5069347;28;20893;-74
2022/12/27 05:56:12;;;;;;;23.88;11.25;;;1.60;99.90;;;0.17;100.00;98467.22;5069815;28;20742;-73
2022/12/27 05:58:38;;;;;;;30.20;13.17;;;1.50;99.90;;;0.11;100.00;98469.66;5051679;28;20870;-73
2022/12/27 06:01:08;;;;;;;33.55;12.57;;;1.50;99.90;;;0.13;100.00;98468.53;5069646;28;20514;-73
2022/12/27 06:03:36;;;;;;;30.85;12.02;;;1.50;99.90;;;0.10;100.00;98481.84;5069639;28;20423;-74
2022/12/27 06:06:03;;;;;;;34.60;12.73;;;1.50;99.90;;;0.12;100.00;98473.88;5073637;28;20406;-73
2022/12/27 06:08:30;;;;;;;28.40;11.85;;;1.50;99.90;;;0.10;100.00;98475.81;5073343;28;20444;-73
2022/12/27 06:11:06;;;;;;;33.80;13.05;;;1.50;99.90;;;0.09;100.00;98476.78;5073736;28;20498;-73
2022/12/27 06:13:32;;;;;;;28.97;12.33;;;1.50;99.90;;;0.15;100.00;98470.97;5072789;28;20919;-73
2022/12/27 06:16:00;;;;;;;30.80;12.27;;;1.50;99.90;;;0.12;100.00;98472.09;5073583;28;20481;-73
2022/12/27 06:18:28;;;;;;;23.77;10.75;;;1.50;99.90;;;0.11;100.00;98461.84;5073449;28;20429;-73
2022/12/27 06:21:01;;;;;;;24.20;10.60;;;1.50;99.90;;;0.14;100.00;98469.34;5073487;28;20403;-73
2022/12/27 06:23:27;;;;;;;22.70;10.85;;;1.50;99.90;;;0.11;100.00;98469.66;5072689;28;20518;-73
2022/12/27 06:25:53;;;;;;;26.10;10.98;;;1.50;99.90;;;0.11;100.00;98467.84;5073448;28;20410;-73
2022/12/27 06:28:19;;;;;;;22.03;10.67;;;1.50;99.90;;;0.13;100.00;98471.13;5073052;28;20979;-73
2022/12/27 06:30:45;;;;;;;26.13;11.63;;;1.50;99.90;;;0.21;100.00;98473.75;5073185;28;20448;-73
2022/12/27 06:33:11;;;;;;;27.00;10.70;;;1.60;99.90;;;0.16;100.00;98470.78;5072388;28;21025;-72
2022/12/27 06:35:37;;;;;;;25.17;10.32;;;1.60;99.90;;;0.19;100.00;98477.47;5073141;28;20419;-72
2022/12/27 06:38:04;;;;;;;21.73;10.20;;;1.60;99.90;;;0.20;100.00;98473.91;5072921;28;20801;-72
2022/12/27 06:40:30;;;;;;;25.63;11.32;;;1.60;99.90;;;0.19;100.00;98480.91;5073011;28;20399;-72
2022/12/27 06:42:56;;;;;;;21.27;9.97;;;1.60;99.90;;;0.15;100.00;98484.00;5063676;28;20890;-72
2022/12/27 06:45:22;;;;;;;23.65;10.73;;;1.50;99.90;;;0.16;100.00;98481.22;5052962;28;20412;-73
2022/12/27 06:47:47;;;;;;;21.60;10.53;;;1.50;99.90;;;0.17;100.00;98490.66;5052828;28;20416;-72
2022/12/27 06:50:13;;;;;;;26.35;11.32;;;1.50;99.90;;;0.19;100.00;98483.50;5052936;28;20457;-73
2022/12/27 06:52:39;;;;;;;29.10;11.52;;;1.60;99.90;;;0.18;100.00;98481.06;5043460;28;20436;-71
2022/12/27 06:55:07;;;;;;;26.35;11.32;;;1.50;99.90;;;0.13;100.00;98488.53;5033420;28;20421;-71
2022/12/27 06:57:33;;;;;;;28.85;11.45;;;1.50;99.90;;;0.12;100.00;98492.09;5051460;28;20401;-71
2022/12/27 06:59:59;;;;;;;22.88;10.68;;;1.50;99.90;;;0.08;100.00;98489.00;5036569;28;20487;-71
2022/12/27 07:02:25;;;;;;;24.35;10.63;;;1.50;99.90;;;0.08;100.00;98491.59;5042544;28;20757;-71
2022/12/27 07:04:50;;;;;;;30.00;11.43;;;1.40;99.90;;;0.13;100.00;98494.56;5045024;28;20917;-72
2022/12/27 07:07:16;;;;;;;28.05;11.40;;;1.50;99.90;;;0.15;100.00;98500.41;5036249;28;20403;-72
2022/12/27 07:09:42;;;;;;;29.70;11.38;;;1.50;99.90;;;0.13;100.00;98502.38;5049632;28;20441;-72
2022/12/27 07:12:09;;;;;;;22.48;10.02;;;1.50;99.90;;;0.10;100.00;98514.88;5039025;28;20461;-71
2022/12/27 07:14:36;;;;;;;31.83;11.48;;;1.50;99.90;;;0.16;100.00;98511.63;5041822;28;20398;-71
2022/12/27 07:17:01;;;;;;;27.58;11.20;;;1.50;99.90;;;0.14;100.00;98500.59;5038228;28;20445;-71
2022/12/27 07:19:27;;;;;;;24.00;10.50;;;1.50;99.90;;;0.08;100.00;98519.41;5048762;28;20402;-71
2022/12/27 07:21:53;;;;;;;24.95;10.82;;;1.50;99.90;;;0.11;100.00;98514.72;5035478;28;20484;-71
2022/12/27 07:24:19;;;;;;;23.25;9.80;;;1.50;99.90;;;0.10;100.00;98515.69;5044616;28;20746;-70
2022/12/27 07:26:45;;;;;;;27.45;11.15;;;1.50;99.90;;;0.14;100.00;98514.41;5043055;28;20496;-71
2022/12/27 07:29:12;;;;;;;22.38;10.13;;;1.50;99.90;;;0.14;100.00;98516.19;5037361;28;20464;-71
2022/12/27 07:31:39;;;;;;;19.63;9.32;;;1.50;99.90;;;0.16;100.00;98522.03;5047757;28;20416;-71
2022/12/27 07:34:05;;;;;;;19.85;10.27;;;1.50;99.90;;;0.21;100.00;98514.59;5037132;28;20535;-71
2022/12/27 07:36:36;;;;;;;27.67;10.82;;;1.50;99.90;;;0.21;100.00;98518.03;5051676;28;20402;-70
2022/12/27 07:39:03;;;;;;;21.55;10.10;;;1.60;99.90;;;0.29;100.00;98525.03;5038410;28;20423;-70
2022/12/27 07:41:29;;;;;;;28.30;11.35;;;1.60;99.90;;;0.32;100.00;98524.72;5038537;28;20414;-70
2022/12/27 07:43:54;;;;;;;24.80;11.13;;;1.60;99.90;;;0.31;100.00;98517.88;5048293;28;20402;-71
2022/12/27 07:46:24;;;;;;;27.02;11.32;;;1.60;99.90;;;0.34;100.00;98525.38;5040260;28;21137;-70
2022/12/27 07:48:54;;;;;;;25.70;11.07;;;1.70;99.90;;;0.34;100.00;98526.19;5044962;28;20457;-70
2022/12/27 07:51:21;;;;;;;27.05;11.18;;;1.70;99.90;;;0.37;100.00;98530.28;5047036;28;20807;-70
2022/12/27 07:53:48;;;;;;;27.13;11.27;;;1.70;99.90;;;0.42;100.00;98519.38;5039083;28;20410;-73
2022/12/27 07:56:16;;;;;;;25.30;11.45;;;1.70;99.90;;;0.43;100.00;98515.78;5042828;28;20856;-73
2022/12/27 07:58:45;;;;;;;24.13;10.60;;;1.70;99.90;;;0.46;100.00;98518.88;5031645;28;20482;-70
2022/12/27 08:01:13;;;;;;;28.25;12.30;;;1.80;99.90;;;0.51;100.00;98518.41;5031613;28;20403;-70
2022/12/27 08:03:41;;;;;;;27.07;10.67;;;1.80;99.90;;;0.53;100.00;98514.66;5047092;28;20421;-73
2022/12/27 08:06:18;;;;;;;29.20;10.67;;;1.80;99.90;;;0.52;100.00;98518.28;5049873;28;20409;-73
2022/12/27 08:08:45;;;;;;;23.52;10.13;;;1.80;99.90;;;0.66;100.00;98522.03;5047968;28;20429;-73
2022/12/27 08:11:10;;;;;;;25.00;10.20;;;1.90;99.90;;;0.71;100.00;98510.16;5038157;28;20406;-73
2022/12/27 08:13:36;;;;;;;25.60;10.70;;;2.00;99.90;;;0.77;100.00;98506.91;5042012;28;20413;-73
2022/12/27 08:16:03;;;;;;;21.27;10.38;;;2.10;99.90;;;0.78;100.00;98505.09;5044094;28;20895;-74
2022/12/27 08:18:30;;;;;;;25.33;10.48;;;2.10;99.90;;;0.86;100.00;98505.13;5045478;28;20927;-74
2022/12/27 08:20:57;;;;;;;23.37;9.90;;;2.20;99.90;;;0.89;100.00;98504.81;5049135;28;20875;-74
2022/12/27 08:23:23;;;;;;;23.83;10.52;;;2.20;99.90;;;0.90;100.00;98498.63;5042243;28;20420;-73
2022/12/27 08:25:49;;;;;;;26.48;10.25;;;2.20;99.90;;;0.93;100.00;98500.06;5045831;28;20410;-73
2022/12/27 08:28:17;;;;;;;25.17;9.32;;;2.30;99.90;;;0.99;100.00;98518.47;5034115;28;20510;-74
2022/12/27 08:30:45;;;;;;;22.45;8.68;;;2.20;99.90;;;1.31;100.00;98512.44;5044582;28;20398;-74
2022/12/27 08:33:11;;;;;;;23.95;10.45;;;2.50;99.90;;;1.30;100.00;98510.00;5042434;28;20504;-73
2022/12/27 08:35:38;;;;;;;23.20;9.57;;;2.60;99.90;;;1.27;100.00;98511.16;5042764;28;20449;-73
2022/12/27 08:38:06;;;;;;;22.02;9.02;;;2.50;99.90;;;1.30;100.00;98510.81;5050134;28;20413;-73
2022/12/27 08:40:32;;;;;;;20.83;9.13;;;2.60;99.90;;;1.30;100.00;98508.19;5046335;28;20527;-73
2022/12/27 08:42:59;;;;;;;19.20;8.82;;;2.60;99.90;;;1.34;100.00;98511.31;5029960;28;20403;-74
2022/12/27 08:45:25;;;;;;;21.88;7.88;;;2.60;99.90;;;1.28;100.00;98517.97;5049950;28;20411;-74
2022/12/27 08:47:51;;;;;;;20.05;8.30;;;2.50;99.90;;;1.35;100.00;98513.75;5047139;28;20424;-73
2022/12/27 08:50:17;;;;;;;17.92;8.02;;;2.60;99.90;;;1.46;100.00;98512.59;5047869;28;20507;-74
2022/12/27 08:52:43;;;;;;;21.38;8.20;;;2.70;99.90;;;1.51;100.00;98521.53;5047376;28;20421;-74
2022/12/27 08:55:10;;;;;;;18.35;7.95;;;2.80;99.90;;;1.54;100.00;98523.81;5045677;28;20482;-73
2022/12/27 08:57:36;;;;;;;23.50;8.80;;;2.80;99.90;;;1.61;100.00;98515.31;5027402;28;20899;-73
2022/12/27 09:00:05;;;;;;;18.92;7.70;;;2.90;99.90;;;1.62;100.00;98522.19;5048681;28;20420;-72
2022/12/27 09:02:31;;;;;;;15.25;7.82;;;2.80;99.90;;;1.66;100.00;98524.28;5040691;28;20814;-73
2022/12/27 09:04:57;;;;;;;17.65;8.02;;;2.90;99.90;;;1.74;100.00;98528.66;5050055;28;20492;-74
2022/12/27 09:07:23;;;;;;;19.13;7.88;;;3.00;99.90;;;1.76;100.00;98530.13;5050110;28;20401;-74
2022/12/27 09:09:49;;;;;;;24.20;8.17;;;3.00;99.90;;;1.86;100.00;98533.38;5050198;28;20420;-74
2022/12/27 09:12:16;;;;;;;19.85;7.32;;;3.10;99.90;;;1.79;100.00;98529.81;5049494;28;20428;-74
2022/12/27 09:14:42;;;;;;;22.17;7.57;;;3.00;99.90;;;1.81;100.00;98527.84;5049355;28;20918;-74
2022/12/27 09:17:08;;;;;;;19.70;7.53;;;3.10;99.90;;;1.85;100.00;98529.16;5050162;28;20409;-74
2022/12/27 09:19:35;;;;;;;21.90;8.07;;;3.10;99.90;;;1.89;100.00;98535.63;5050029;28;20402;-74
2022/12/27 09:22:01;;;;;;;23.20;7.68;;;3.10;99.90;;;1.97;100.00;98539.22;5048016;28;20768;-73
2022/12/27 09:24:26;;;;;;;19.67;7.15;;;3.20;99.90;;;2.11;100.00;98538.50;5049412;28;20417;-71
2022/12/27 09:26:52;;;;;;;21.50;7.50;;;3.30;99.90;;;2.13;100.00;98536.53;5040043;28;20425;-72
2022/12/27 09:29:20;;;;;;;18.52;6.55;;;3.30;99.90;;;2.13;100.00;98547.81;5037404;28;20414;-72
2022/12/27 09:31:46;;;;;;;16.95;6.63;;;3.40;99.90;;;2.31;100.00;98545.78;5043260;28;20969;-73
2022/12/27 09:34:13;;;;;;;17.42;6.18;;;3.50;99.90;;;2.32;100.00;98536.97;5039661;28;20423;-72
2022/12/27 09:36:39;;;;;;;14.15;6.32;;;3.50;99.90;;;2.29;100.00;98532.06;5041595;28;20444;-73
2022/12/27 09:39:05;;;;;;;18.38;6.32;;;3.50;99.90;;;2.39;100.00;98539.72;5039448;23;20794;-73
2022/12/27 09:41:49;;;;;;;15.10;5.70;;;3.50;99.90;;;2.57;100.00;98539.44;5048044;28;20405;-74
2022/12/27 09:44:24;;;;;;;14.77;5.50;;;3.60;99.90;;;2.64;100.00;98545.59;5048876;28;20397;-74
2022/12/27 09:46:55;;;;;;;13.98;5.88;;;3.80;99.90;;;2.68;100.00;98546.91;5045654;28;20401;-74
2022/12/27 09:49:29;;;;;;;15.38;5.60;;;3.90;99.90;;;2.66;100.00;98551.50;5047126;28;20783;-73
2022/12/27 09:52:02;;;;;;;15.90;6.00;;;3.80;99.90;;;2.75;100.00;98552.25;5045785;28;20398;-74
2022/12/27 09:54:35;;;;;;;13.63;5.50;;;3.90;99.90;;;2.83;100.00;98550.41;5048537;28;20402;-74
2022/12/27 09:57:04;;;;;;;14.73;5.77;;;4.00;99.90;;;2.92;100.00;98538.91;5046739;28;20758;-74
2022/12/27 09:59:35;;;;;;;12.27;4.80;;;4.10;99.90;;;3.15;100.00;98540.72;5033154;28;20406;-73
2022/12/27 10:02:19;;;;;;;11.32;5.40;;;4.20;99.90;;;3.21;100.00;98532.97;5046887;28;20457;-73
2022/12/27 10:04:45;;;;;;;16.90;5.25;;;4.40;99.90;;;3.32;100.00;98531.72;5045892;28;20433;-74
2022/12/27 10:07:24;;;;;;;12.00;4.40;;;4.50;99.90;;;3.59;100.00;98528.56;5048310;28;20411;-74
2022/12/27 10:10:08;;;;;;;10.60;4.63;;;4.70;99.90;;;3.94;100.00;98531.44;5047740;28;20496;-73
2022/12/27 10:13:01;;;;;;;12.43;3.58;;;5.10;99.90;;;4.63;100.00;98532.72;5047926;28;20393;-73
2022/12/27 10:15:39;;;;;;;6.00;3.10;;;5.40;99.90;;;5.10;100.00;98523.53;5047616;28;20421;-73
2022/12/27 10:18:18;;;;;;;10.27;2.90;;;6.30;99.90;;;5.49;100.00;98542.22;5046604;28;20473;-74
2022/12/27 10:21:00;;;;;;;9.63;2.60;;;6.60;99.90;;;5.95;100.00;98528.63;5046879;28;20974;-73
2022/12/27 10:23:31;;;;;;;8.50;2.63;;;7.10;99.90;;;6.60;100.00;98531.59;5046152;28;20457;-73
2022/12/27 10:26:00;;;;;;;4.20;2.17;;;7.60;99.90;;;7.36;100.00;98524.22;5048812;28;20863;-74
2022/12/27 10:28:37;;;;;;;7.75;1.80;;;8.30;99.90;;;7.64;100.00;98518.75;5048807;28;20421;-74
2022/12/27 10:31:05;;;;;;;4.50;2.20;;;8.70;99.90;;;7.97;100.00;98521.31;5046116;28;20408;-74
2022/12/27 10:33:33;;;;;;;7.53;2.40;;;9.00;99.90;;;8.11;100.00;98517.66;5047235;28;20488;-74
2022/12/27 10:36:08;;;;;;;6.75;2.33;;;9.00;99.90;;;8.40;100.00;98513.72;5048341;28;20397;-74
2022/12/27 10:38:34;;;;;;;5.18;2.10;;;9.40;99.90;;;8.55;100.00;98516.09;5048087;28;20401;-74
2022/12/27 10:41:19;;;;;;;6.15;2.08;;;9.60;99.90;;;9.06;100.00;98518.63;5048272;28;20421;-73
2022/12/27 10:43:50;;;;;;;3.78;1.90;;;9.90;99.90;;;9.43;100.00;98516.94;5051892;28;20427;-73
2022/12/27 10:46:22;;;;;;;3.97;1.90;;;10.30;99.90;;;9.69;100.00;98514.09;5047406;28;20422;-72
2022/12/27 10:48:56;;;;;;;6.30;1.90;;;10.50;99.90;;;9.89;100.00;98518.38;5048796;28;20475;-71
2022/12/27 10:51:23;;;;;;;3.95;1.45;;;10.80;99.90;;;10.17;100.00;98513.41;5050033;28;20405;-72
2022/12/27 10:54:01;;;;;;;3.67;2.08;;;11.10;99.90;;;10.41;100.00;98523.13;5052249;28;20611;-71
2022/12/27 10:56:29;;;;;;;3.78;1.58;;;11.60;99.90;;;10.57;100.00;98516.41;5051301;28;20875;-71
2022/12/27 10:59:10;;;;;;;4.82;1.63;;;11.50;99.90;;;10.84;100.00;98517.66;5045453;28;20397;-71
2022/12/27 11:01:38;;;;;;;4.53;1.73;;;11.70;99.90;;;10.86;100.00;98512.16;5050632;28;20447;-72
2022/12/27 11:04:17;;;;;;;4.97;2.10;;;11.90;99.90;;;10.92;100.00;98510.44;5046463;28;20413;-72
2022/12/27 11:06:45;;;;;;;5.15;1.60;;;11.50;99.90;;;10.98;100.00;98517.47;5049436;28;20849;-72
2022/12/27 11:09:25;;;;;;;4.05;1.70;;;11.80;99.90;;;10.80;100.00;98505.91;5043793;28;20422;-71
2022/12/27 11:12:09;;;;;;;4.75;1.58;;;11.80;99.90;;;10.74;100.00;98514.75;5047042;28;20393;-72
2022/12/27 11:14:36;;;;;;;7.63;2.13;;;11.70;99.90;;;10.73;100.00;98510.50;5035566;28;20401;-71
2022/12/27 11:17:09;;;;;;;4.80;2.10;;;11.80;99.90;;;10.99;100.00;98514.59;5051308;28;20534;-70
2022/12/27 11:19:39;;;;;;;6.35;1.80;;;11.80;99.90;;;10.89;100.00;98517.00;5048167;28;20417;-70
2022/12/27 11:22:07;;;;;;;4.93;1.83;;;11.80;99.90;;;10.60;100.00;98508.00;5049156;28;20922;-70
2022/12/27 11:24:34;;;;;;;3.92;1.80;;;11.80;99.90;;;10.23;100.00;98512.53;5049621;28;20401;-70
2022/12/27 11:27:01;;;;;;;6.15;2.10;;;11.40;99.90;;;9.11;100.00;98516.16;5050825;28;20524;-70
2022/12/27 11:29:31;;;;;;;5.25;2.20;;;10.20;99.90;;;8.37;100.00;98515.94;5051154;28;20428;-70
2022/12/27 11:32:04;;;;;;;7.50;2.30;;;9.50;99.90;;;7.68;100.00;98524.41;5050563;28;20879;-70
2022/12/27 11:34:36;;;;;;;6.30;2.20;;;8.70;99.90;;;7.26;100.00;98523.81;5050563;28;20869;-70
2022/12/27 11:37:06;;;;;;;7.18;2.80;;;8.40;99.90;;;6.96;100.00;98520.75;5051240;28;20412;-70
2022/12/27 11:39:42;;;;;;;6.95;2.58;;;8.20;99.90;;;6.73;100.00;98517.66;5051300;28;21068;-70
2022/12/27 11:42:18;;;;;;;5.65;2.30;;;7.90;99.90;;;6.63;100.00;98517.19;5050240;28;20406;-69
2022/12/27 11:44:52;;;;;;;5.45;2.05;;;7.70;99.90;;;6.61;100.00;98514.75;5050452;28;20452;-71
2022/12/27 11:47:32;;;;;;;8.88;2.30;;;7.70;99.90;;;6.55;100.00;98512.94;5029534;28;20727;-69
2022/12/27 11:50:23;;;;;;;8.88;2.50;;;7.70;99.90;;;6.50;100.00;98510.09;5025083;28;20426;-70
2022/12/27 11:53:37;;;;;;;5.88;2.42;;;7.50;99.90;;;6.23;100.00;98505.75;5040590;28;20401;-70
2022/12/27 11:56:21;;;;;;;5.10;2.17;;;7.30;99.90;;;6.11;100.00;98504.66;5024562;28;20446;-72
2022/12/27 11:59:42;;;;;;;7.80;2.33;;;7.20;99.90;;;6.33;100.00;98506.16;5050555;28;20459;-70
2022/12/27 12:02:45;;;;;;;10.68;2.30;;;7.30;99.90;;;6.16;100.00;98503.06;5027099;28;20409;-70
2022/12/27 12:05:55;;;;;;;6.07;1.90;;;7.30;99.90;;;6.53;100.00;98501.00;5051303;28;20401;-70